Time;durP1;ratioP1;P1;durP2;ratioP2;P2;SDS_P1;SDS_P2;PMS_P1;PMS_P2;Temp;Humidity;BMP_temperature;BMP_pressure;BME280_temperature;BME280_humidity;BME280_pressure;Samples;Min_cycle;Max_cycle;Signal;HPM_P1;HPM_P2
2021/01/17 00:00:16;;;;;;;25.10;12.15;;;5.50;74.50;;;;;;5094967;28;20032;-61
2021/01/17 00:02:44;;;;;;;26.42;12.80;;;5.50;74.40;;;;;;5094480;28;20103;-61
2021/01/17 00:05:15;;;;;;;29.67;15.25;;;5.40;74.50;;;;;;5095302;28;20035;-61
2021/01/17 00:07:41;;;;;;;29.90;13.23;;;5.50;74.50;;;;;;5101622;28;20118;-61
2021/01/17 00:10:12;;;;;;;27.38;13.43;;;5.40;74.50;;;;;;5114734;28;20130;-61
2021/01/17 00:12:38;;;;;;;20.67;9.95;;;5.50;74.70;;;;;;5115150;28;20031;-61
2021/01/17 00:15:11;;;;;;;15.05;7.75;;;5.40;74.50;;;;;;5115264;28;20028;-61
2021/01/17 00:17:41;;;;;;;30.02;14.27;;;5.40;74.60;;;;;;5114671;28;20023;-61
2021/01/17 00:20:11;;;;;;;20.00;9.73;;;5.40;74.50;;;;;;5115249;28;20066;-61
2021/01/17 00:22:37;;;;;;;30.05;14.10;;;5.40;74.50;;;;;;5114452;27;20027;-61
2021/01/17 00:25:05;;;;;;;23.20;10.73;;;5.40;74.50;;;;;;5115160;28;20027;-61
2021/01/17 00:27:31;;;;;;;30.30;14.05;;;5.40;74.60;;;;;;5114978;28;20058;-61
2021/01/17 00:29:56;;;;;;;21.45;10.32;;;5.40;74.70;;;;;;5114178;28;20494;-61
2021/01/17 00:32:22;;;;;;;22.65;12.30;;;5.40;74.70;;;;;;5115064;28;20043;-61
2021/01/17 00:34:48;;;;;;;34.67;16.30;;;5.40;74.80;;;;;;5114856;28;20023;-61
2021/01/17 00:37:15;;;;;;;25.20;12.18;;;5.40;74.70;;;;;;5114279;28;20038;-61
2021/01/17 00:39:41;;;;;;;18.55;7.95;;;5.40;74.90;;;;;;5110615;28;20055;-61
2021/01/17 00:42:11;;;;;;;27.83;11.15;;;5.40;74.90;;;;;;5094534;28;20028;-61
2021/01/17 00:44:37;;;;;;;23.08;9.68;;;5.40;75.00;;;;;;5093816;28;20032;-61
2021/01/17 00:47:04;;;;;;;34.25;14.88;;;5.40;75.10;;;;;;5093262;28;20031;-61
2021/01/17 00:49:30;;;;;;;26.25;11.35;;;5.30;75.00;;;;;;5093039;28;20031;-61
2021/01/17 00:51:56;;;;;;;31.58;16.20;;;5.30;75.00;;;;;;5093390;28;20047;-61
2021/01/17 00:54:23;;;;;;;30.75;13.18;;;5.30;74.80;;;;;;5092822;28;20487;-61
2021/01/17 00:56:48;;;;;;;30.90;15.15;;;5.30;74.70;;;;;;5092676;28;20028;-61
2021/01/17 00:59:17;;;;;;;34.92;19.10;;;5.30;74.80;;;;;;5092158;28;20028;-61
2021/01/17 01:01:46;;;;;;;31.27;15.80;;;5.30;74.70;;;;;;5092765;28;20039;-61
2021/01/17 01:04:15;;;;;;;31.38;14.10;;;5.20;74.60;;;;;;5113962;28;20019;-61
2021/01/17 01:06:41;;;;;;;29.92;11.98;;;5.20;74.70;;;;;;5113528;28;20027;-60
2021/01/17 01:09:08;;;;;;;27.10;11.32;;;5.20;74.70;;;;;;5114394;27;20027;-61
2021/01/17 01:11:34;;;;;;;31.92;14.15;;;5.20;74.90;;;;;;5114513;28;20035;-61
2021/01/17 01:13:59;;;;;;;33.00;15.95;;;5.20;74.90;;;;;;5113229;28;20376;-61
2021/01/17 01:16:25;;;;;;;33.17;18.05;;;5.20;74.90;;;;;;5114235;28;20032;-61
2021/01/17 01:18:51;;;;;;;25.45;11.68;;;5.20;74.80;;;;;;5113150;28;20476;-61
2021/01/17 01:21:34;;;;;;;31.58;15.35;;;5.20;74.80;;;;;;5112814;28;20050;-61
2021/01/17 01:24:01;;;;;;;31.43;14.57;;;5.20;74.80;;;;;;5113841;28;20538;-61
2021/01/17 01:26:27;;;;;;;29.83;14.43;;;5.20;74.60;;;;;;5113527;28;20034;-61
2021/01/17 01:28:54;;;;;;;34.10;16.48;;;5.20;74.70;;;;;;5114074;28;20020;-61
2021/01/17 01:31:22;;;;;;;21.05;9.27;;;5.20;74.80;;;;;;5113762;28;20075;-61
2021/01/17 01:33:49;;;;;;;36.40;15.70;;;5.20;75.10;;;;;;5113061;28;20023;-61
2021/01/17 01:36:38;;;;;;;28.15;13.15;;;5.20;75.00;;;;;;5113829;28;20066;-61
2021/01/17 01:39:08;;;;;;;37.00;17.33;;;5.20;75.10;;;;;;5103306;28;20138;-61
2021/01/17 01:41:36;;;;;;;38.22;19.45;;;5.20;74.90;;;;;;5111132;28;20131;-61
2021/01/17 01:44:03;;;;;;;35.65;18.48;;;5.20;74.70;;;;;;5093340;28;20020;-61
2021/01/17 01:46:30;;;;;;;32.13;17.38;;;5.10;74.70;;;;;;5096235;28;20437;-61
2021/01/17 01:48:57;;;;;;;21.35;8.52;;;5.10;74.80;;;;;;5095777;28;20032;-61
2021/01/17 01:51:24;;;;;;;30.00;14.50;;;5.10;74.90;;;;;;5096788;28;20079;-61
2021/01/17 01:53:51;;;;;;;19.80;9.88;;;5.10;74.90;;;;;;5102323;28;20024;-61
2021/01/17 01:56:17;;;;;;;31.98;15.60;;;5.10;74.90;;;;;;5105025;28;20040;-61
2021/01/17 01:58:43;;;;;;;31.60;15.30;;;5.10;75.00;;;;;;5106797;28;20028;-61
2021/01/17 02:01:10;;;;;;;25.15;11.57;;;5.00;75.00;;;;;;5091046;28;20024;-61
2021/01/17 02:03:36;;;;;;;34.92;16.73;;;5.00;75.20;;;;;;5093009;28;20040;-61
2021/01/17 02:06:02;;;;;;;37.75;13.88;;;5.00;75.40;;;;;;5096853;28;20035;-61
2021/01/17 02:09:15;;;;;;;29.58;14.13;;;5.00;75.60;;;;;;5102243;28;20503;-60
2021/01/17 02:12:01;;;;;;;26.60;12.77;;;5.10;75.70;;;;;;5093126;28;20051;-61
2021/01/17 02:14:39;;;;;;;26.73;13.82;;;5.00;75.70;;;;;;5092900;28;20041;-61
2021/01/17 02:17:08;;;;;;;27.38;12.65;;;5.10;75.90;;;;;;5092194;28;20376;-61
2021/01/17 02:19:51;;;;;;;36.60;16.73;;;5.10;75.80;;;;;;5092687;28;20051;-61
2021/01/17 02:22:20;;;;;;;32.47;13.98;;;5.10;75.90;;;;;;5091970;28;20043;-61
2021/01/17 02:25:00;;;;;;;32.83;13.43;;;5.10;75.90;;;;;;5106910;28;20424;-61
2021/01/17 02:27:29;;;;;;;33.72;16.20;;;5.10;76.10;;;;;;5092878;28;20043;-61
2021/01/17 02:29:56;;;;;;;26.00;11.80;;;5.10;75.90;;;;;;5091871;28;20024;-61
2021/01/17 02:32:21;;;;;;;20.77;11.35;;;5.10;76.10;;;;;;5092664;28;20484;-61
2021/01/17 02:34:49;;;;;;;33.72;14.40;;;5.10;76.30;;;;;;5092592;28;20027;-61
2021/01/17 02:37:28;;;;;;;33.38;14.50;;;5.10;76.20;;;;;;5092106;28;20062;-61
2021/01/17 02:40:23;;;;;;;24.65;12.60;;;5.10;76.30;;;;;;5092252;28;20027;-61
2021/01/17 02:42:49;;;;;;;35.70;15.60;;;5.10;76.20;;;;;;5092485;28;20074;-60
2021/01/17 02:45:15;;;;;;;29.30;14.35;;;5.10;76.20;;;;;;5091921;28;20072;-61
2021/01/17 02:47:40;;;;;;;35.08;17.42;;;5.10;76.10;;;;;;5092487;28;20066;-60
2021/01/17 02:50:08;;;;;;;25.00;11.70;;;5.10;76.00;;;;;;5092127;28;20071;-61
2021/01/17 02:52:46;;;;;;;24.08;11.10;;;5.10;76.20;;;;;;5092546;28;20028;-61
2021/01/17 02:55:12;;;;;;;20.15;10.15;;;5.10;76.40;;;;;;5092121;28;20444;-61
2021/01/17 02:57:42;;;;;;;33.35;16.98;;;5.10;76.40;;;;;;5099531;28;20491;-61
2021/01/17 03:00:09;;;;;;;26.65;12.75;;;5.10;76.30;;;;;;5098512;28;20488;-61
2021/01/17 03:02:43;;;;;;;34.90;15.73;;;5.10;76.20;;;;;;5092592;28;20035;-61
2021/01/17 03:05:16;;;;;;;26.35;9.23;;;5.10;76.40;;;;;;5091804;28;20055;-61
2021/01/17 03:07:46;;;;;;;;;;;5.10;76.50;;;;;;5092789;28;20032;-61
2021/01/17 03:10:12;;;;;;;12.63;6.40;;;5.10;76.60;;;;;;5094351;28;20018;-61
2021/01/17 03:12:37;;;;;;;27.80;13.38;;;5.10;76.50;;;;;;5095468;28;20034;-61
2021/01/17 03:15:05;;;;;;;15.65;7.40;;;5.10;76.60;;;;;;5096150;28;20032;-61
2021/01/17 03:17:30;;;;;;;33.40;14.82;;;5.10;76.60;;;;;;5095878;28;20032;-61
2021/01/17 03:19:56;;;;;;;28.05;10.98;;;5.10;76.50;;;;;;5095289;28;20115;-61
2021/01/17 03:22:22;;;;;;;14.70;6.20;;;5.10;76.50;;;;;;5095625;28;20039;-61
2021/01/17 03:24:47;;;;;;;19.83;7.25;;;5.10;76.40;;;;;;5096247;28;20547;-61
2021/01/17 03:27:13;;;;;;;35.17;17.00;;;5.10;76.60;;;;;;5095357;28;20103;-61
2021/01/17 03:29:38;;;;;;;30.73;14.98;;;5.10;76.50;;;;;;5095587;28;20479;-61
2021/01/17 03:32:04;;;;;;;12.35;6.30;;;5.10;76.40;;;;;;5095618;28;20039;-60
2021/01/17 03:34:31;;;;;;;27.20;11.75;;;5.10;76.40;;;;;;5094908;28;20081;-60
2021/01/17 03:36:57;;;;;;;29.35;14.15;;;5.10;76.30;;;;;;5095687;28;20067;-60
2021/01/17 03:39:23;;;;;;;40.30;17.75;;;5.10;76.40;;;;;;5096084;28;20027;-61
2021/01/17 03:41:48;;;;;;;34.30;15.18;;;5.10;76.30;;;;;;5108616;28;20039;-61
2021/01/17 03:44:14;;;;;;;34.25;15.02;;;5.10;76.20;;;;;;5095664;28;20070;-61
2021/01/17 03:46:40;;;;;;;19.58;8.75;;;5.10;76.30;;;;;;5094718;28;20519;-61
2021/01/17 03:49:05;;;;;;;31.13;13.95;;;5.10;76.30;;;;;;5095568;28;20085;-61
2021/01/17 03:51:31;;;;;;;32.28;14.93;;;5.10;76.10;;;;;;5098410;28;20448;-61
2021/01/17 03:53:56;;;;;;;23.48;12.02;;;5.10;76.00;;;;;;5105918;28;20103;-60
2021/01/17 03:56:22;;;;;;;41.97;16.85;;;5.10;76.00;;;;;;5095391;28;20032;-61
2021/01/17 03:58:48;;;;;;;11.20;6.45;;;5.10;75.90;;;;;;5095264;28;20051;-61
2021/01/17 04:01:13;;;;;;;22.83;10.55;;;5.10;75.80;;;;;;5094621;28;20031;-61
2021/01/17 04:03:39;;;;;;;26.88;12.38;;;5.10;75.50;;;;;;5095138;28;20024;-61
2021/01/17 04:06:05;;;;;;;31.95;13.30;;;5.10;75.50;;;;;;5094995;28;20085;-60
2021/01/17 04:08:31;;;;;;;32.15;14.55;;;5.10;75.60;;;;;;5094635;28;20039;-61
2021/01/17 04:10:56;;;;;;;33.38;13.25;;;5.00;75.40;;;;;;5094969;28;20559;-61
2021/01/17 04:13:22;;;;;;;29.90;12.77;;;5.10;75.60;;;;;;5095121;28;20028;-60
2021/01/17 04:15:48;;;;;;;36.53;17.67;;;5.00;75.60;;;;;;5094140;28;20016;-61
2021/01/17 04:18:13;;;;;;;29.30;13.00;;;5.00;75.60;;;;;;5094835;28;20115;-61
2021/01/17 04:20:41;;;;;;;34.85;16.02;;;5.00;75.70;;;;;;5094448;28;20036;-61
2021/01/17 04:23:07;;;;;;;27.23;10.15;;;5.00;75.70;;;;;;5094268;28;20028;-61
2021/01/17 04:25:33;;;;;;;12.52;5.40;;;5.00;75.60;;;;;;5094899;28;20157;-60
2021/01/17 04:27:59;;;;;;;24.58;10.90;;;5.00;75.50;;;;;;5094615;28;20132;-61
2021/01/17 04:30:30;;;;;;;17.15;6.97;;;5.00;75.50;;;;;;5093845;28;20174;-61
2021/01/17 04:32:56;;;;;;;27.42;11.18;;;5.00;75.60;;;;;;5094494;28;20043;-61
2021/01/17 04:35:22;;;;;;;10.25;5.45;;;4.90;75.60;;;;;;5094514;28;20472;-61
2021/01/17 04:37:48;;;;;;;23.60;9.80;;;4.90;75.70;;;;;;5093776;28;20028;-61
2021/01/17 04:40:14;;;;;;;13.55;7.35;;;4.90;75.80;;;;;;5094277;28;20044;-61
2021/01/17 04:42:47;;;;;;;43.97;17.83;;;4.90;75.90;;;;;;5093769;28;20086;-61
2021/01/17 04:45:16;;;;;;;32.20;13.45;;;4.90;75.90;;;;;;5094451;28;20103;-61
2021/01/17 04:47:45;;;;;;;44.90;16.60;;;5.00;75.90;;;;;;5094226;28;20067;-60
2021/01/17 04:50:16;;;;;;;25.95;13.00;;;5.00;75.80;;;;;;5107814;28;20071;-60
2021/01/17 04:52:52;;;;;;;38.67;17.38;;;5.00;75.70;;;;;;5094254;28;20402;-60
2021/01/17 04:55:23;;;;;;;22.73;10.85;;;5.00;75.70;;;;;;5094191;28;20089;-61
2021/01/17 04:58:11;;;;;;;33.13;14.27;;;5.00;75.70;;;;;;5093484;28;20040;-61
2021/01/17 05:00:41;;;;;;;35.50;15.27;;;5.00;75.70;;;;;;5094209;28;20065;-61
2021/01/17 05:03:24;;;;;;;44.47;17.48;;;5.10;75.70;;;;;;5094140;28;20036;-60
2021/01/17 05:06:05;;;;;;;43.78;17.65;;;5.10;75.60;;;;;;5093231;28;20047;-60
2021/01/17 05:08:32;;;;;;;39.05;17.55;;;5.10;75.60;;;;;;5093873;28;20043;-61
2021/01/17 05:10:59;;;;;;;42.60;20.17;;;5.20;75.60;;;;;;5092876;28;20086;-60
2021/01/17 05:13:30;;;;;;;26.77;10.38;;;5.10;75.50;;;;;;5094015;28;20028;-61
2021/01/17 05:15:57;;;;;;;41.33;18.88;;;5.10;75.50;;;;;;5093488;28;20038;-60
2021/01/17 05:18:23;;;;;;;41.53;18.10;;;5.20;75.50;;;;;;5093024;28;20428;-61
2021/01/17 05:20:54;;;;;;;34.78;15.45;;;5.20;75.50;;;;;;5093527;28;20036;-61
2021/01/17 05:23:22;;;;;;;32.33;15.00;;;5.20;75.50;;;;;;5094014;28;20380;-61
2021/01/17 05:25:49;;;;;;;38.65;17.05;;;5.20;75.50;;;;;;5092768;28;20035;-61
2021/01/17 05:28:14;;;;;;;45.20;21.63;;;5.20;75.40;;;;;;5093762;28;20081;-61
2021/01/17 05:30:47;;;;;;;41.08;16.98;;;5.20;75.40;;;;;;5093531;28;20123;-61
2021/01/17 05:33:18;;;;;;;44.30;19.47;;;5.20;75.40;;;;;;5092300;28;20368;-60
2021/01/17 05:35:44;;;;;;;40.63;18.75;;;5.20;75.40;;;;;;5093724;28;20039;-61
2021/01/17 05:38:14;;;;;;;29.65;11.48;;;5.20;75.50;;;;;;5095472;28;20024;-61
2021/01/17 05:40:39;;;;;;;36.10;15.55;;;5.20;75.50;;;;;;5100932;28;20066;-61
2021/01/17 05:43:08;;;;;;;24.67;11.63;;;5.20;75.50;;;;;;5108935;28;20016;-60
2021/01/17 05:45:33;;;;;;;38.05;15.30;;;5.20;75.60;;;;;;5109967;28;20035;-60
2021/01/17 05:48:05;;;;;;;40.67;18.13;;;5.30;75.70;;;;;;5106880;28;20027;-61
2021/01/17 05:50:33;;;;;;;38.67;15.57;;;5.30;75.70;;;;;;5108844;28;20035;-61
2021/01/17 05:53:03;;;;;;;45.17;20.35;;;5.30;75.70;;;;;;5110268;28;20114;-61
2021/01/17 05:55:38;;;;;;;34.85;14.98;;;5.30;75.60;;;;;;5108729;28;20043;-62
2021/01/17 05:58:44;;;;;;;38.30;17.33;;;5.30;75.70;;;;;;5112446;28;20418;-61
2021/01/17 06:01:20;;;;;;;35.17;14.60;;;5.30;75.80;;;;;;5028856;28;20392;-61
2021/01/17 06:03:54;;;;;;;31.13;13.85;;;5.30;75.60;;;;;;5030245;28;20039;-61
2021/01/17 06:06:30;;;;;;;47.80;21.08;;;5.30;75.70;;;;;;5079378;28;20031;-60
2021/01/17 06:08:58;;;;;;;32.25;15.30;;;5.30;75.60;;;;;;5096823;28;20035;-61
2021/01/17 06:11:24;;;;;;;41.25;18.80;;;5.20;75.50;;;;;;5103786;28;20036;-61
2021/01/17 06:14:02;;;;;;;46.50;20.35;;;5.30;76.20;;;;;;5107880;28;20490;-60
2021/01/17 06:16:39;;;;;;;46.08;22.50;;;5.30;75.60;;;;;;5101730;28;20036;-60
2021/01/17 06:19:09;;;;;;;36.83;17.77;;;5.30;75.50;;;;;;5102981;28;20027;-61
2021/01/17 06:21:37;;;;;;;42.97;20.10;;;5.30;75.50;;;;;;5099348;28;20093;-61
2021/01/17 06:24:09;;;;;;;32.17;13.32;;;5.20;75.50;;;;;;5103951;28;20494;-61
2021/01/17 06:26:37;;;;;;;48.38;22.52;;;5.30;75.60;;;;;;5099149;28;20118;-61
2021/01/17 06:29:05;;;;;;;42.00;18.45;;;5.20;75.60;;;;;;5098212;28;20027;-61
2021/01/17 06:31:32;;;;;;;44.80;18.63;;;5.20;75.60;;;;;;5098969;28;20047;-62
2021/01/17 06:34:09;;;;;;;24.67;10.18;;;5.20;75.70;;;;;;5103644;28;20019;-61
2021/01/17 06:36:43;;;;;;;41.03;15.23;;;5.20;75.70;;;;;;5098298;28;20032;-62
2021/01/17 06:39:57;;;;;;;39.88;17.50;;;5.20;75.80;;;;;;5104397;28;20065;-61
2021/01/17 06:42:24;;;;;;;30.47;13.10;;;5.10;75.80;;;;;;5096958;28;20043;-61
2021/01/17 06:44:51;;;;;;;45.80;17.52;;;5.20;76.00;;;;;;5102055;28;20440;-64
2021/01/17 06:47:25;;;;;;;52.80;21.45;;;5.10;76.40;;;;;;5105253;28;20035;-61
2021/01/17 06:49:53;;;;;;;45.95;19.60;;;5.10;76.40;;;;;;5108521;28;20060;-61
2021/01/17 06:52:19;;;;;;;43.33;17.20;;;5.10;76.30;;;;;;5112546;28;20119;-61
2021/01/17 06:54:52;;;;;;;48.92;23.15;;;5.10;76.30;;;;;;5112693;28;20115;-61
2021/01/17 06:57:20;;;;;;;43.28;18.00;;;5.10;76.40;;;;;;5112723;28;20031;-61
2021/01/17 06:59:48;;;;;;;45.50;16.83;;;5.10;76.40;;;;;;5108800;28;20492;-61
2021/01/17 07:02:16;;;;;;;42.20;18.45;;;5.00;76.30;;;;;;5115372;28;20028;-61
2021/01/17 07:04:48;;;;;;;40.35;17.35;;;5.00;76.30;;;;;;5112425;28;20032;-61
2021/01/17 07:07:31;;;;;;;40.38;16.13;;;5.10;76.40;;;;;;5110654;28;20034;-72
2021/01/17 07:10:05;;;;;;;42.90;18.73;;;5.10;76.50;;;;;;5115368;28;20024;-61
2021/01/17 07:12:53;;;;;;;42.97;19.90;;;5.00;76.50;;;;;;5112067;28;20377;-61
2021/01/17 07:15:35;;;;;;;38.08;16.38;;;5.10;76.60;;;;;;5111815;28;20036;-61
2021/01/17 07:18:08;;;;;;;40.63;17.60;;;5.00;76.50;;;;;;5113372;28;20463;-61
2021/01/17 07:20:38;;;;;;;45.55;21.80;;;5.00;76.40;;;;;;5113613;28;20032;-61
2021/01/17 07:23:06;;;;;;;32.90;16.20;;;5.00;76.50;;;;;;5113930;28;20020;-61
2021/01/17 07:25:35;;;;;;;31.58;13.57;;;5.00;76.50;;;;;;5109824;28;20126;-61
2021/01/17 07:28:12;;;;;;;31.58;13.50;;;5.00;76.60;;;;;;5108754;28;20024;-64
2021/01/17 07:30:59;;;;;;;48.35;21.58;;;5.00;76.70;;;;;;5111252;28;20071;-61
2021/01/17 07:33:32;;;;;;;36.20;16.65;;;5.00;76.80;;;;;;5099878;28;20023;-61
2021/01/17 07:36:04;;;;;;;43.88;17.92;;;5.00;76.60;;;;;;5111315;28;20031;-61
2021/01/17 07:38:35;;;;;;;29.88;12.30;;;4.90;76.70;;;;;;5100243;28;20078;-61
2021/01/17 07:41:04;;;;;;;37.50;16.85;;;4.90;76.70;;;;;;5113579;27;20060;-61
2021/01/17 07:43:33;;;;;;;41.25;17.30;;;4.90;76.80;;;;;;5113995;28;20042;-61
2021/01/17 07:46:01;;;;;;;40.47;17.63;;;4.90;76.90;;;;;;5113771;28;20423;-61
2021/01/17 07:48:27;;;;;;;21.42;10.13;;;5.00;77.00;;;;;;5113412;28;20463;-61
2021/01/17 07:50:56;;;;;;;38.75;17.30;;;5.00;77.00;;;;;;5114639;28;20031;-61
2021/01/17 07:53:37;;;;;;;37.00;12.95;;;5.00;77.00;;;;;;5111612;28;20115;-62
2021/01/17 07:56:34;;;;;;;36.35;17.98;;;5.00;77.00;;;;;;5104397;28;20376;-61
2021/01/17 07:59:02;;;;;;;36.33;16.08;;;5.00;77.00;;;;;;5095296;28;20031;-61
2021/01/17 08:01:31;;;;;;;44.53;21.30;;;4.90;77.00;;;;;;5093397;28;20043;-62
2021/01/17 08:04:14;;;;;;;21.70;9.80;;;5.00;77.20;;;;;;5095253;28;20032;-61
2021/01/17 08:06:45;;;;;;;37.75;16.52;;;4.90;77.20;;;;;;5094895;28;20047;-61
2021/01/17 08:09:15;;;;;;;28.75;12.10;;;4.90;77.20;;;;;;5094929;28;20579;-61
2021/01/17 08:11:43;;;;;;;20.38;9.90;;;5.00;77.20;;;;;;5095011;28;20129;-63
2021/01/17 08:14:20;;;;;;;17.20;8.43;;;5.00;77.40;;;;;;5094001;28;20468;-61
2021/01/17 08:17:15;;;;;;;37.03;16.08;;;5.00;77.40;;;;;;5097722;28;20107;-61
2021/01/17 08:19:44;;;;;;;30.60;12.57;;;5.10;77.50;;;;;;5109870;28;20412;-62
2021/01/17 08:22:16;;;;;;;25.52;11.05;;;5.00;77.40;;;;;;5112031;28;20096;-61
2021/01/17 08:24:49;;;;;;;40.67;17.73;;;5.00;77.30;;;;;;5110285;28;20067;-62
2021/01/17 08:27:38;;;;;;;46.85;20.65;;;5.10;77.40;;;;;;5110670;28;20364;-61
2021/01/17 08:30:06;;;;;;;29.77;12.73;;;5.10;77.30;;;;;;5101972;28;20376;-61
2021/01/17 08:32:35;;;;;;;39.95;17.58;;;5.10;77.90;;;;;;5111689;28;20034;-62
2021/01/17 08:35:24;;;;;;;36.55;16.13;;;5.10;78.00;;;;;;5094355;28;20040;-62
2021/01/17 08:37:50;;;;;;;27.10;8.73;;;5.10;77.50;;;;;;5097935;28;20032;-62
2021/01/17 08:40:18;;;;;;;23.10;8.43;;;5.10;77.40;;;;;;5107417;28;20380;-62
2021/01/17 08:43:01;;;;;;;24.88;11.27;;;5.10;77.60;;;;;;5104526;28;20032;-62
2021/01/17 08:45:26;;;;;;;9.65;5.80;;;5.10;77.60;;;;;;5101476;28;20596;-62
2021/01/17 08:48:01;;;;;;;36.17;16.17;;;5.10;77.50;;;;;;5104041;28;20027;-62
2021/01/17 08:50:37;;;;;;;29.90;14.23;;;5.20;77.60;;;;;;5099631;28;20032;-62
2021/01/17 08:53:14;;;;;;;33.08;14.38;;;5.10;77.70;;;;;;5107142;28;20372;-62
2021/01/17 08:55:44;;;;;;;35.58;16.50;;;5.20;77.60;;;;;;5096846;28;20024;-62
2021/01/17 08:58:14;;;;;;;24.15;8.20;;;5.20;77.60;;;;;;5097176;28;20031;-61
2021/01/17 09:00:49;;;;;;;37.05;16.50;;;5.20;77.70;;;;;;5108003;28;20055;-69
2021/01/17 09:03:35;;;;;;;27.05;12.70;;;5.20;77.60;;;;;;5095049;28;20028;-61
2021/01/17 09:06:03;;;;;;;29.77;11.38;;;5.20;77.60;;;;;;5098460;28;20426;-62
2021/01/17 09:08:31;;;;;;;27.02;11.60;;;5.20;77.40;;;;;;5110216;28;20077;-61
2021/01/17 09:10:57;;;;;;;28.08;11.88;;;5.20;77.50;;;;;;5106229;28;20122;-61
2021/01/17 09:13:28;;;;;;;31.25;11.95;;;5.20;77.40;;;;;;5099040;28;20475;-62
2021/01/17 09:15:57;;;;;;;36.83;15.48;;;5.20;77.50;;;;;;5108362;28;20032;-62
2021/01/17 09:18:32;;;;;;;23.48;9.50;;;5.30;77.50;;;;;;5099210;28;20106;-62
2021/01/17 09:20:57;;;;;;;34.67;14.75;;;5.30;77.40;;;;;;5106219;28;20020;-62
2021/01/17 09:23:24;;;;;;;36.33;13.85;;;5.30;77.30;;;;;;5109139;28;20031;-61
2021/01/17 09:25:58;;;;;;;33.08;13.18;;;5.30;77.30;;;;;;5107087;28;20110;-61
2021/01/17 09:28:24;;;;;;;;;;;5.30;77.30;;;;;;5108564;28;20117;-62
2021/01/17 09:30:51;;;;;;;11.82;5.28;;;5.30;77.10;;;;;;5108408;28;20083;-62
2021/01/17 09:33:18;;;;;;;31.35;14.02;;;5.30;76.90;;;;;;5105670;28;20471;-62
2021/01/17 09:35:45;;;;;;;33.50;15.25;;;5.30;77.00;;;;;;5109666;28;20054;-61
2021/01/17 09:38:16;;;;;;;33.50;16.08;;;5.30;77.00;;;;;;5104116;28;20028;-62
2021/01/17 09:40:47;;;;;;;31.52;10.38;;;5.30;77.10;;;;;;5107489;28;20048;-61
2021/01/17 09:43:14;;;;;;;28.60;12.20;;;5.30;77.00;;;;;;5097830;28;20633;-62
2021/01/17 09:45:39;;;;;;;43.05;18.48;;;5.40;77.00;;;;;;5099045;28;20107;-62
2021/01/17 09:48:06;;;;;;;31.10;14.18;;;5.40;77.00;;;;;;5100174;28;20107;-61
2021/01/17 09:50:33;;;;;;;29.90;13.20;;;5.40;77.00;;;;;;5098878;28;20044;-61
2021/01/17 09:53:06;;;;;;;30.30;11.55;;;5.40;77.00;;;;;;5096001;28;20047;-62
2021/01/17 09:55:32;;;;;;;;;;;5.40;77.00;;;;;;5097778;28;20032;-62
2021/01/17 09:58:06;;;;;;;31.73;13.57;;;5.40;77.00;;;;;;5104924;28;19953;-62
2021/01/17 10:00:32;;;;;;;28.42;12.27;;;5.50;76.70;;;;;;5102375;28;20050;-61
2021/01/17 10:02:58;;;;;;;22.02;10.27;;;5.50;76.80;;;;;;5101819;28;20531;-60
2021/01/17 10:05:30;;;;;;;48.40;17.95;;;5.50;77.00;;;;;;5105016;27;20024;-60
2021/01/17 10:08:15;;;;;;;31.73;13.30;;;5.50;77.20;;;;;;5101015;28;20032;-61
2021/01/17 10:10:44;;;;;;;38.25;15.73;;;5.50;77.20;;;;;;5103330;28;20058;-65
2021/01/17 10:13:10;;;;;;;28.50;13.65;;;5.50;77.10;;;;;;5102349;28;20062;-61
2021/01/17 10:15:36;;;;;;;30.88;13.93;;;5.50;77.10;;;;;;5108953;28;20051;-62
2021/01/17 10:18:02;;;;;;;33.42;15.00;;;5.50;77.10;;;;;;5104824;28;20527;-62
2021/01/17 10:20:30;;;;;;;28.73;13.05;;;5.60;77.20;;;;;;5109966;28;20076;-62
2021/01/17 10:23:07;;;;;;;29.35;11.82;;;5.60;77.10;;;;;;5110314;28;20052;-62
2021/01/17 10:25:34;;;;;;;30.52;12.70;;;5.60;77.10;;;;;;5107702;28;20028;-62
2021/01/17 10:28:02;;;;;;;37.72;17.08;;;5.60;77.00;;;;;;5107850;28;20027;-62
2021/01/17 10:30:29;;;;;;;31.52;12.65;;;5.60;77.00;;;;;;5111244;28;20479;-62
2021/01/17 10:33:07;;;;;;;43.63;17.65;;;5.60;77.00;;;;;;5106343;28;20437;-62
2021/01/17 10:35:48;;;;;;;36.17;16.98;;;5.70;77.00;;;;;;5108033;28;20046;-61
2021/01/17 10:38:15;;;;;;;20.50;8.13;;;5.60;76.90;;;;;;5107030;28;20427;-62
2021/01/17 10:40:42;;;;;;;23.88;9.00;;;5.70;76.80;;;;;;5109376;28;20047;-61
2021/01/17 10:43:30;;;;;;;38.30;13.32;;;5.70;76.90;;;;;;5108379;28;20032;-71
2021/01/17 10:46:15;;;;;;;40.55;16.40;;;5.70;77.00;;;;;;5108507;28;20031;-63
2021/01/17 10:48:52;;;;;;;36.13;16.25;;;5.70;76.90;;;;;;5108874;28;20035;-62
2021/01/17 10:51:25;;;;;;;37.92;15.98;;;5.70;76.90;;;;;;5105934;28;20063;-61
2021/01/17 10:53:52;;;;;;;35.38;13.02;;;5.70;76.80;;;;;;5106294;28;20435;-61
2021/01/17 10:56:22;;;;;;;39.38;17.70;;;5.80;76.90;;;;;;5107230;28;20040;-62
2021/01/17 10:58:48;;;;;;;34.60;13.27;;;5.70;76.80;;;;;;5105513;28;20039;-61
2021/01/17 11:01:14;;;;;;;27.27;12.68;;;5.70;76.40;;;;;;5107687;28;20062;-62
2021/01/17 11:03:45;;;;;;;31.10;12.75;;;5.70;76.50;;;;;;5101627;28;20127;-61
2021/01/17 11:06:14;;;;;;;34.80;14.32;;;5.70;76.70;;;;;;5097440;28;20039;-61
2021/01/17 11:08:45;;;;;;;31.35;13.50;;;5.70;76.80;;;;;;5102284;28;20044;-62
2021/01/17 11:11:12;;;;;;;30.83;11.18;;;5.80;76.90;;;;;;5096565;28;20491;-61
2021/01/17 11:13:38;;;;;;;36.85;15.90;;;5.80;76.80;;;;;;5105661;28;20044;-61
2021/01/17 11:16:04;;;;;;;25.05;9.73;;;5.80;76.70;;;;;;5108548;28;20027;-61
2021/01/17 11:18:31;;;;;;;34.47;13.35;;;5.80;76.70;;;;;;5111163;28;20672;-61
2021/01/17 11:21:01;;;;;;;37.28;15.13;;;5.80;76.70;;;;;;5110126;28;20047;-61
2021/01/17 11:23:28;;;;;;;31.35;14.10;;;5.80;76.70;;;;;;5109465;28;20020;-62
2021/01/17 11:26:05;;;;;;;37.25;16.48;;;5.80;76.70;;;;;;5110260;28;20035;-62
2021/01/17 11:28:32;;;;;;;29.88;13.75;;;5.80;76.60;;;;;;5109668;28;20031;-62
2021/01/17 11:31:13;;;;;;;39.22;13.60;;;5.90;76.60;;;;;;5110930;28;20042;-62
2021/01/17 11:33:39;;;;;;;32.60;13.43;;;5.90;76.60;;;;;;5111942;28;20107;-62
2021/01/17 11:36:05;;;;;;;16.98;6.18;;;5.90;76.60;;;;;;5111814;28;20457;-62
2021/01/17 11:38:45;;;;;;;27.25;10.93;;;5.90;76.40;;;;;;5111791;28;20043;-62
2021/01/17 11:41:13;;;;;;;17.40;7.05;;;5.90;76.30;;;;;;5110146;28;20123;-61
2021/01/17 11:43:39;;;;;;;6.05;3.85;;;5.90;76.30;;;;;;5113278;28;20089;-62
2021/01/17 11:46:06;;;;;;;26.02;9.65;;;5.90;76.40;;;;;;5112283;27;20587;-62
2021/01/17 11:48:33;;;;;;;14.95;6.53;;;5.90;76.40;;;;;;5113164;28;20539;-62
2021/01/17 11:50:59;;;;;;;22.67;9.27;;;5.90;76.40;;;;;;5113826;28;20563;-62
2021/01/17 11:53:26;;;;;;;6.80;4.00;;;5.80;76.40;;;;;;5110453;28;20060;-62
2021/01/17 11:55:52;;;;;;;18.92;9.00;;;5.80;76.60;;;;;;5110985;28;20031;-62
2021/01/17 11:58:20;;;;;;;23.77;10.52;;;5.80;76.70;;;;;;5113204;28;20049;-62
2021/01/17 12:00:57;;;;;;;28.00;11.25;;;5.80;76.90;;;;;;5112667;28;20562;-62
2021/01/17 12:03:25;;;;;;;26.83;11.00;;;5.70;76.90;;;;;;5110068;28;20038;-62
2021/01/17 12:05:57;;;;;;;25.25;11.30;;;5.80;77.00;;;;;;5110079;28;20027;-62
2021/01/17 12:08:23;;;;;;;19.63;8.60;;;5.80;77.20;;;;;;5112395;28;20032;-73
2021/01/17 12:10:55;;;;;;;14.68;5.57;;;5.80;77.20;;;;;;5111477;28;20074;-62
2021/01/17 12:13:21;;;;;;;22.73;10.15;;;5.80;77.10;;;;;;5112293;28;20028;-61
2021/01/17 12:15:47;;;;;;;29.08;11.68;;;5.80;77.00;;;;;;5113034;28;20104;-62
2021/01/17 12:18:13;;;;;;;30.77;11.02;;;5.90;77.20;;;;;;5108634;28;20020;-62
2021/01/17 12:20:38;;;;;;;28.15;10.35;;;5.90;77.20;;;;;;5109848;27;20053;-61
2021/01/17 12:23:04;;;;;;;20.95;9.45;;;5.90;77.10;;;;;;5108653;28;20026;-61
2021/01/17 12:25:30;;;;;;;27.52;11.98;;;5.90;77.20;;;;;;5103952;28;20024;-62
2021/01/17 12:27:55;;;;;;;30.35;12.13;;;5.90;77.20;;;;;;5104409;28;20434;-62
2021/01/17 12:30:21;;;;;;;29.13;11.40;;;6.00;77.30;;;;;;5109553;28;20027;-62
2021/01/17 12:32:47;;;;;;;22.42;8.32;;;6.00;77.30;;;;;;5109935;28;20024;-62
2021/01/17 12:35:13;;;;;;;23.52;10.90;;;6.00;77.20;;;;;;5102518;28;20036;-61
2021/01/17 12:37:38;;;;;;;23.23;9.70;;;6.10;77.20;;;;;;5106289;28;20027;-61
2021/01/17 12:40:05;;;;;;;29.90;12.55;;;6.10;77.10;;;;;;5109592;28;20023;-62
2021/01/17 12:42:32;;;;;;;33.78;13.52;;;6.20;77.10;;;;;;5111274;28;20538;-61
2021/01/17 12:44:57;;;;;;;27.27;10.90;;;6.20;77.10;;;;;;5109882;28;20119;-61
2021/01/17 12:47:23;;;;;;;29.33;9.90;;;6.30;77.10;;;;;;5112860;28;20044;-61
2021/01/17 12:49:49;;;;;;;28.33;13.10;;;6.30;77.00;;;;;;5111657;28;20051;-61
2021/01/17 12:52:14;;;;;;;29.15;11.80;;;6.30;77.00;;;;;;5107815;28;20031;-61
2021/01/17 12:54:40;;;;;;;24.33;9.50;;;6.40;77.00;;;;;;5111730;28;20126;-61